Time;durP1;ratioP1;P1;durP2;ratioP2;P2;SDS_P1;SDS_P2;PMS_P1;PMS_P2;Temp;Humidity;BMP_temperature;BMP_pressure;BME280_temperature;BME280_humidity;BME280_pressure;Samples;Min_cycle;Max_cycle;Signal;HPM_P1;HPM_P2
2022/08/06 00:01:08;;;;;;;22.33;9.57;;;;;;;27.84;36.94;99801.84;5052919;28;20048;-69
2022/08/06 00:03:36;;;;;;;18.30;10.50;;;;;;;27.87;37.43;99810.34;5020550;28;20047;-69
2022/08/06 00:06:01;;;;;;;29.65;9.63;;;;;;;27.91;37.20;99806.00;5069721;28;20052;-68
2022/08/06 00:08:27;;;;;;;23.95;10.45;;;;;;;27.88;37.24;99808.44;5052838;28;20090;-69
2022/08/06 00:10:53;;;;;;;16.50;9.52;;;;;;;27.69;37.49;99786.19;5036373;28;20041;-69
2022/08/06 00:13:19;;;;;;;26.20;9.90;;;;;;;27.68;37.36;99786.47;5036335;28;20478;-69
2022/08/06 00:15:48;;;;;;;19.10;9.75;;;;;;;27.83;37.40;99803.75;5053579;28;20093;-69
2022/08/06 00:18:13;;;;;;;23.30;10.00;;;;;;;27.82;37.40;99802.09;5053030;28;20048;-70
2022/08/06 00:20:39;;;;;;;29.05;10.85;;;;;;;27.82;37.88;99810.28;5020394;28;20032;-69
2022/08/06 00:23:05;;;;;;;16.30;9.80;;;;;;;27.72;38.26;99810.22;5036356;28;20095;-69
2022/08/06 00:25:31;;;;;;;17.83;9.30;;;;;;;27.77;38.05;99817.63;5069602;28;20094;-69
2022/08/06 00:27:56;;;;;;;14.77;8.75;;;;;;;27.70;38.69;99814.31;5052620;28;20094;-75
2022/08/06 00:30:22;;;;;;;22.85;9.50;;;;;;;27.66;38.80;99818.69;5052781;28;20045;-69
2022/08/06 00:32:49;;;;;;;17.85;9.20;;;;;;;27.73;38.48;99803.69;5069425;28;20045;-68
2022/08/06 00:35:14;;;;;;;11.52;8.73;;;;;;;27.72;38.53;99821.16;5035978;28;20497;-69
2022/08/06 00:37:40;;;;;;;13.55;8.60;;;;;;;27.59;39.13;99821.63;5019566;28;20044;-69
2022/08/06 00:40:07;;;;;;;15.90;8.50;;;;;;;27.51;39.17;99813.09;5035749;28;20615;-70
2022/08/06 00:42:33;;;;;;;20.33;9.02;;;;;;;27.68;38.97;99828.22;5070823;28;20051;-69
2022/08/06 00:45:00;;;;;;;21.60;9.88;;;;;;;27.65;39.22;99814.28;5055379;28;20080;-69
2022/08/06 00:47:26;;;;;;;16.08;8.50;;;;;;;27.47;39.38;99790.16;5073730;28;20374;-68
2022/08/06 00:49:52;;;;;;;19.27;8.73;;;;;;;27.53;39.26;99805.47;5073425;28;20041;-69
2022/08/06 00:52:18;;;;;;;22.17;9.38;;;;;;;27.38;39.59;99805.41;5056812;28;20051;-69
2022/08/06 00:54:43;;;;;;;19.13;9.10;;;;;;;27.48;39.68;99819.91;5023652;28;20041;-67
2022/08/06 00:57:09;;;;;;;18.10;9.25;;;;;;;27.45;39.84;99819.63;5040175;28;20055;-69
2022/08/06 00:59:35;;;;;;;11.82;9.43;;;;;;;27.50;39.87;99825.94;5040169;28;20421;-70
2022/08/06 01:02:00;;;;;;;16.02;9.25;;;;;;;27.53;39.83;99844.53;5073294;28;20135;-69
2022/08/06 01:04:26;;;;;;;20.33;9.82;;;;;;;27.48;40.27;99835.47;5073538;28;20422;-68
2022/08/06 01:06:52;;;;;;;16.15;9.15;;;;;;;27.35;40.14;99814.09;5039422;28;20511;-70
2022/08/06 01:09:17;;;;;;;15.55;8.82;;;;;;;27.37;40.51;99822.84;5056251;28;20045;-69
2022/08/06 01:11:43;;;;;;;18.67;10.00;;;;;;;27.25;40.55;99808.53;5039695;28;20047;-69
2022/08/06 01:14:09;;;;;;;14.75;8.90;;;;;;;27.31;40.80;99821.97;5039370;28;20520;-68
2022/08/06 01:16:50;;;;;;;17.08;9.00;;;;;;;27.52;40.30;99828.41;5039301;28;20044;-69
2022/08/06 01:19:24;;;;;;;18.02;9.95;;;;;;;27.35;40.46;99819.56;5072628;28;20045;-69
2022/08/06 01:22:21;;;;;;;14.50;9.45;;;;;;;27.49;40.51;99837.13;5055712;28;20049;-69
2022/08/06 01:25:13;;;;;;;18.45;9.32;;;;;;;27.48;40.37;99832.72;5055990;28;20056;-69
2022/08/06 01:28:01;;;;;;;21.60;10.02;;;;;;;27.51;40.40;99837.66;5072419;28;20051;-69
2022/08/06 01:30:33;;;;;;;24.55;9.60;;;;;;;27.48;40.29;99821.81;5055944;28;20044;-69
2022/08/06 01:33:28;;;;;;;28.35;10.65;;;;;;;27.54;40.28;99837.13;5039408;28;20066;-68
2022/08/06 01:35:57;;;;;;;18.17;10.32;;;;;;;27.50;39.96;99831.41;5037584;28;20575;-69
2022/08/06 01:38:29;;;;;;;20.93;9.40;;;;;;;27.60;39.81;99842.38;5039284;28;20059;-69
2022/08/06 01:40:58;;;;;;;21.55;10.32;;;;;;;27.54;40.11;99840.69;5072462;28;20302;-69
2022/08/06 01:43:25;;;;;;;21.05;11.20;;;;;;;27.44;40.33;99840.63;5055768;28;20048;-69
2022/08/06 01:45:51;;;;;;;21.75;10.98;;;;;;;27.42;40.66;99837.34;5039291;28;20044;-69
2022/08/06 01:48:19;;;;;;;31.48;12.40;;;;;;;27.35;40.48;99823.13;5055839;28;20059;-69
2022/08/06 01:50:48;;;;;;;32.05;12.65;;;;;;;27.47;40.42;99836.56;5038775;28;20040;-69
2022/08/06 01:53:22;;;;;;;22.77;11.85;;;;;;;27.48;40.17;99846.38;5073628;28;20037;-70
2022/08/06 01:55:52;;;;;;;26.85;12.25;;;;;;;27.45;40.41;99834.09;5055437;28;20049;-71
2022/08/06 01:58:22;;;;;;;21.40;12.43;;;;;;;27.43;40.72;99838.97;5055524;28;20041;-68
2022/08/06 02:00:51;;;;;;;37.10;12.60;;;;;;;27.36;40.98;99843.03;5055216;28;20095;-69
2022/08/06 02:03:24;;;;;;;27.42;12.10;;;;;;;27.40;40.55;99844.97;5071869;28;20047;-69
2022/08/06 02:05:52;;;;;;;27.05;12.23;;;;;;;27.38;40.60;99849.88;5055211;28;20082;-70
2022/08/06 02:08:20;;;;;;;28.80;12.93;;;;;;;27.34;40.76;99843.28;5071629;28;20087;-70
2022/08/06 02:10:47;;;;;;;39.83;12.63;;;;;;;27.38;40.68;99847.16;5072988;28;20047;-69
2022/08/06 02:13:33;;;;;;;26.85;12.07;;;;;;;27.13;41.30;99819.63;5044363;28;20052;-75
2022/08/06 02:16:01;;;;;;;33.28;11.57;;;;;;;27.41;40.86;99848.53;5055256;28;20122;-70
2022/08/06 02:18:30;;;;;;;36.65;12.82;;;;;;;27.44;40.82;99839.81;5055239;28;20050;-68
2022/08/06 02:20:57;;;;;;;34.40;12.43;;;;;;;27.54;40.65;99850.78;5071765;28;20044;-69
2022/08/06 02:23:24;;;;;;;44.72;12.88;;;;;;;27.60;40.42;99847.03;5055087;28;20052;-69
2022/08/06 02:25:51;;;;;;;39.50;12.20;;;;;;;27.68;40.33;99851.97;5071532;28;20036;-69
2022/08/06 02:28:20;;;;;;;38.85;12.43;;;;;;;27.63;40.12;99828.19;5054936;28;20072;-69
2022/08/06 02:30:46;;;;;;;29.70;11.98;;;;;;;27.82;40.14;99843.06;5038514;28;20044;-69
2022/08/06 02:33:13;;;;;;;35.75;11.90;;;;;;;27.86;39.91;99846.88;5054811;28;20055;-69
2022/08/06 02:35:45;;;;;;;29.30;11.63;;;;;;;28.00;40.08;99844.53;5038204;28;20063;-69
2022/08/06 02:38:23;;;;;;;26.48;10.50;;;;;;;28.09;41.23;99853.03;5071252;28;20048;-69
2022/08/06 02:41:16;;;;;;;27.70;10.52;;;;;;;28.20;41.35;99852.00;5071252;28;20049;-70
2022/08/06 02:43:50;;;;;;;22.63;9.57;;;;;;;28.30;41.75;99861.06;5071221;28;20060;-70
2022/08/06 02:46:26;;;;;;;19.30;9.43;;;;;;;28.23;42.53;99848.75;5037849;28;20127;-69
2022/08/06 02:49:17;;;;;;;23.58;10.23;;;;;;;28.19;43.27;99855.81;5071134;28;20060;-69
2022/08/06 02:52:00;;;;;;;23.15;9.93;;;;;;;28.15;43.09;99855.53;5054369;28;20055;-70
2022/08/06 02:54:36;;;;;;;28.08;9.05;;;;;;;27.99;43.82;99870.19;5037650;28;20516;-68
2022/08/06 02:57:04;;;;;;;21.45;9.10;;;;;;;27.82;44.02;99855.88;5054244;28;20524;-70
2022/08/06 02:59:35;;;;;;;17.58;9.63;;;;;;;27.72;43.93;99839.44;5071259;28;20098;-69
2022/08/06 03:02:01;;;;;;;24.45;10.10;;;;;;;27.81;43.85;99854.25;5071092;28;20052;-69
2022/08/06 03:04:29;;;;;;;19.42;10.02;;;;;;;27.91;43.95;99852.41;5070730;28;20059;-69
2022/08/06 03:06:56;;;;;;;20.35;9.82;;;;;;;27.86;43.73;99857.00;5053753;28;20524;-70
2022/08/06 03:09:22;;;;;;;18.20;9.10;;;;;;;27.89;43.45;99851.84;5037614;28;20129;-70
2022/08/06 03:11:50;;;;;;;13.52;8.57;;;;;;;27.90;43.32;99831.66;5070911;28;20041;-69
2022/08/06 03:14:17;;;;;;;16.15;8.90;;;;;;;28.16;43.03;99854.44;5054329;28;20041;-70
2022/08/06 03:16:44;;;;;;;21.73;8.98;;;;;;;28.21;42.76;99862.66;5070468;28;20063;-71
2022/08/06 03:19:10;;;;;;;19.52;9.23;;;;;;;28.28;42.54;99857.75;5037353;28;20037;-70
2022/08/06 03:21:37;;;;;;;17.42;9.60;;;;;;;28.17;42.49;99844.34;5037394;28;20037;-79
2022/08/06 03:24:03;;;;;;;16.73;9.23;;;;;;;28.31;42.44;99859.16;5070691;28;20048;-70
2022/08/06 03:26:29;;;;;;;19.15;8.98;;;;;;;28.34;42.26;99858.63;5070823;28;20068;-69
2022/08/06 03:28:56;;;;;;;17.73;9.60;;;;;;;28.42;42.13;99869.84;5054134;28;20048;-69
2022/08/06 03:31:25;;;;;;;16.65;9.82;;;;;;;28.53;41.97;99862.50;5020889;28;20063;-69
2022/08/06 03:33:52;;;;;;;12.60;8.88;;;;;;;28.45;42.06;99847.44;5020477;28;20098;-69
2022/08/06 03:36:19;;;;;;;17.55;8.93;;;;;;;28.52;41.63;99855.41;5020709;28;20574;-69
2022/08/06 03:38:59;;;;;;;15.77;8.82;;;;;;;28.53;41.61;99841.47;5070257;28;20135;-69
2022/08/06 03:41:25;;;;;;;20.55;9.23;;;;;;;28.38;42.34;99859.72;5036894;28;20052;-69
2022/08/06 03:43:51;;;;;;;18.00;10.00;;;;;;;28.21;43.15;99861.84;5053595;28;20044;-69
2022/08/06 03:46:29;;;;;;;29.58;10.88;;;;;;;28.24;43.25;99862.13;5037296;28;20067;-69
2022/08/06 03:48:59;;;;;;;28.10;10.65;;;;;;;28.33;43.39;99865.16;5053264;28;20459;-72
2022/08/06 03:51:27;;;;;;;26.30;10.88;;;;;;;28.39;43.04;99859.44;5020444;28;20486;-69
2022/08/06 03:53:54;;;;;;;18.58;10.13;;;;;;;28.41;42.78;99861.91;5020427;28;20047;-69
2022/08/06 03:56:23;;;;;;;18.27;10.18;;;;;;;28.41;43.09;99851.81;5036646;28;20422;-74
2022/08/06 03:58:50;;;;;;;25.38;11.45;;;;;;;28.52;42.76;99860.88;5036614;28;20123;-70
2022/08/06 04:01:20;;;;;;;25.85;11.20;;;;;;;28.56;42.66;99873.75;5053222;28;20041;-68
2022/08/06 04:03:46;;;;;;;26.98;11.80;;;;;;;28.26;43.74;99861.84;5070924;28;20052;-70
2022/08/06 04:06:12;;;;;;;23.17;12.25;;;;;;;28.33;43.47;99870.63;5052858;28;20053;-69
2022/08/06 04:08:39;;;;;;;17.52;12.13;;;;;;;28.26;43.56;99867.31;5053369;28;20040;-70
2022/08/06 04:11:05;;;;;;;23.38;12.13;;;;;;;28.22;43.93;99867.03;5069775;28;20063;-69
2022/08/06 04:13:31;;;;;;;17.80;11.57;;;;;;;28.10;43.81;99855.50;5036308;28;20048;-68
2022/08/06 04:15:57;;;;;;;18.60;11.20;;;;;;;28.22;43.99;99864.28;5036133;28;20075;-70
2022/08/06 04:18:26;;;;;;;16.25;10.95;;;;;;;28.28;43.77;99862.44;5052548;28;20093;-69
2022/08/06 04:20:54;;;;;;;18.17;11.43;;;;;;;28.39;43.69;99877.75;5070024;28;20044;-70
2022/08/06 04:23:19;;;;;;;19.25;10.60;;;;;;;28.37;43.43;99883.47;5053172;28;20047;-68
2022/08/06 04:25:53;;;;;;;15.80;10.80;;;;;;;28.51;43.69;99890.13;5036528;28;20127;-69
2022/08/06 04:28:19;;;;;;;33.22;10.90;;;;;;;28.32;43.40;99885.38;5069581;28;20040;-70
2022/08/06 04:30:46;;;;;;;20.02;10.73;;;;;;;28.21;43.58;99878.22;5036410;28;20040;-69
2022/08/06 04:33:13;;;;;;;19.48;10.85;;;;;;;28.29;43.71;99884.00;5052781;28;20417;-70
2022/08/06 04:35:40;;;;;;;17.20;10.75;;;;;;;28.23;43.75;99881.50;5036160;28;20424;-69
2022/08/06 04:38:07;;;;;;;17.38;10.07;;;;;;;28.24;43.84;99874.94;5069524;28;20131;-69
2022/08/06 04:40:33;;;;;;;15.75;10.90;;;;;;;28.29;43.73;99888.63;5069429;28;20055;-69
2022/08/06 04:42:59;;;;;;;17.77;10.23;;;;;;;28.40;43.49;99887.59;5052505;28;20033;-70
2022/08/06 04:45:24;;;;;;;20.33;10.88;;;;;;;28.40;42.96;99882.13;5035943;28;20549;-70
2022/08/06 04:47:51;;;;;;;20.65;10.85;;;;;;;28.42;43.73;99878.03;5052688;28;20382;-70
2022/08/06 04:50:17;;;;;;;18.45;11.15;;;;;;;28.40;43.57;99865.75;5069470;28;20040;-70
2022/08/06 04:52:42;;;;;;;19.75;10.57;;;;;;;28.43;43.19;99867.94;5019387;28;20451;-70
2022/08/06 04:55:08;;;;;;;14.20;10.60;;;;;;;28.47;43.21;99871.78;5052950;28;20561;-69
2022/08/06 04:57:34;;;;;;;18.65;9.98;;;;;;;28.74;42.78;99872.44;5069069;28;20041;-69
2022/08/06 05:00:00;;;;;;;21.70;10.20;;;;;;;28.98;42.33;99877.13;5053232;28;20048;-69
2022/08/06 05:02:28;;;;;;;20.05;9.90;;;;;;;29.08;41.97;99881.78;5019330;28;20135;-69
2022/08/06 05:04:57;;;;;;;15.40;10.20;;;;;;;28.99;41.83;99864.25;5019428;28;20056;-69
2022/08/06 05:07:28;;;;;;;20.33;10.10;;;;;;;29.17;41.86;99888.34;5036136;28;20514;-69
2022/08/06 05:09:56;;;;;;;12.90;9.60;;;;;;;29.14;42.03;99897.94;5052442;28;20048;-69
2022/08/06 05:12:32;;;;;;;15.98;9.82;;;;;;;29.33;41.82;99890.00;5052156;28;20072;-70
2022/08/06 05:15:16;;;;;;;15.95;9.70;;;;;;;29.18;42.13;99882.63;5069078;28;20036;-69
2022/08/06 05:17:46;;;;;;;21.58;10.25;;;;;;;29.13;42.50;99887.25;5069223;28;20052;-70
2022/08/06 05:20:18;;;;;;;13.73;9.50;;;;;;;29.48;41.78;99881.78;5069286;28;20036;-69
2022/08/06 05:22:46;;;;;;;15.88;9.85;;;;;;;29.47;41.16;99867.28;5036245;28;20040;-76
2022/08/06 05:25:15;;;;;;;16.77;9.23;;;;;;;29.52;41.43;99885.63;5069311;28;20044;-71
2022/08/06 05:27:41;;;;;;;18.00;9.48;;;;;;;29.58;41.36;99882.59;5019233;28;20036;-70
2022/08/06 05:30:08;;;;;;;18.88;9.70;;;;;;;29.47;41.36;99863.72;5053558;28;20131;-70
2022/08/06 05:32:44;;;;;;;15.57;9.55;;;;;;;29.57;41.15;99872.75;5072256;28;20425;-70
2022/08/06 05:35:10;;;;;;;15.35;8.80;;;;;;;29.63;41.60;99883.69;5056221;28;20045;-69
2022/08/06 05:37:37;;;;;;;15.98;8.60;;;;;;;29.69;40.92;99882.63;5055929;28;20044;-69
2022/08/06 05:40:04;;;;;;;12.27;8.65;;;;;;;29.87;40.93;99882.84;5073480;28;20056;-70
2022/08/06 05:42:30;;;;;;;13.57;8.90;;;;;;;29.92;40.25;99877.38;5039083;28;20037;-70
2022/08/06 05:44:56;;;;;;;15.70;8.10;;;;;;;30.22;39.85;99873.72;5072278;28;20051;-69
2022/08/06 05:47:24;;;;;;;13.65;8.20;;;;;;;30.15;39.99;99876.75;5022377;28;20089;-69
2022/08/06 05:49:56;;;;;;;12.05;8.60;;;;;;;30.43;39.60;99869.81;5055508;28;20074;-71
2022/08/06 05:52:33;;;;;;;16.80;8.88;;;;;;;30.35;39.51;99893.16;5072358;28;20044;-70
2022/08/06 05:55:14;;;;;;;9.48;7.75;;;;;;;30.45;39.12;99890.34;5071940;28;20049;-72
2022/08/06 05:57:45;;;;;;;10.85;8.10;;;;;;;30.34;39.17;99866.00;5039245;28;20405;-69
2022/08/06 06:00:15;;;;;;;18.52;8.15;;;;;;;30.68;38.90;99878.72;5072150;28;20045;-68
2022/08/06 06:02:47;;;;;;;13.00;8.60;;;;;;;30.90;38.65;99881.06;5038945;28;20494;-73
2022/08/06 06:05:13;;;;;;;17.25;8.23;;;;;;;30.97;38.41;99873.31;5072078;28;20091;-71
2022/08/06 06:07:39;;;;;;;14.07;7.97;;;;;;;31.21;38.16;99855.03;5038510;28;20044;-70
2022/08/06 06:10:06;;;;;;;20.40;7.85;;;;;;;31.65;36.96;99876.91;5038683;28;20509;-69
2022/08/06 06:12:33;;;;;;;12.85;9.30;;;;;;;31.96;36.65;99886.50;5073157;28;20135;-71
2022/08/06 06:15:01;;;;;;;13.80;7.80;;;;;;;32.08;36.44;99884.97;5071663;28;20497;-69
2022/08/06 06:17:38;;;;;;;15.17;8.10;;;;;;;32.01;35.89;99887.28;5039529;28;20045;-68
2022/08/06 06:20:16;;;;;;;12.55;7.53;;;;;;;32.39;35.66;99889.03;5054924;28;20291;-69
2022/08/06 06:22:50;;;;;;;16.27;7.00;;;;;;;32.62;34.91;99888.16;5055295;28;20044;-70
2022/08/06 06:25:21;;;;;;;12.50;7.35;;;;;;;32.88;34.40;99888.66;5071828;28;20045;-71
2022/08/06 06:27:49;;;;;;;10.80;7.38;;;;;;;33.00;34.28;99888.22;5021708;28;20189;-79
2022/08/06 06:30:21;;;;;;;14.13;7.63;;;;;;;33.37;33.35;99883.44;5038481;28;20512;-69
2022/08/06 06:32:58;;;;;;;12.88;6.93;;;;;;;33.68;33.21;99890.09;5022658;28;20044;-79
2022/08/06 06:35:54;;;;;;;12.15;7.47;;;;;;;33.87;32.97;99882.59;5055037;28;20032;-70
2022/08/06 06:38:43;;;;;;;16.55;6.82;;;;;;;33.87;32.63;99888.09;5056058;28;20082;-70
2022/08/06 06:41:29;;;;;;;11.95;7.72;;;;;;;33.88;32.15;99878.72;5054247;28;20102;-69
2022/08/06 06:44:18;;;;;;;12.98;7.18;;;;;;;33.89;32.15;99872.09;5071196;28;20056;-70
2022/08/06 06:47:00;;;;;;;15.70;8.20;;;;;;;34.11;31.77;99863.94;5072606;28;20126;-69
2022/08/06 06:49:55;;;;;;;15.43;7.63;;;;;;;34.51;31.26;99881.59;5071000;28;20463;-70
2022/08/06 06:52:31;;;;;;;10.55;6.53;;;;;;;34.05;31.27;99867.09;5055058;28;20049;-70
2022/08/06 06:55:17;;;;;;;12.77;6.80;;;;;;;33.89;31.98;99857.50;5054449;28;20414;-70
2022/08/06 06:57:46;;;;;;;8.40;6.45;;;;;;;34.02;32.02;99873.22;5072245;28;20182;-70
2022/08/06 07:00:13;;;;;;;12.27;6.93;;;;;;;34.36;31.52;99879.13;5070797;28;20098;-73
2022/08/06 07:02:40;;;;;;;9.05;6.72;;;;;;;34.54;31.10;99874.63;5070709;28;20044;-71
2022/08/06 07:05:07;;;;;;;9.50;6.72;;;;;;;34.69;31.07;99877.88;5054150;28;20099;-70
2022/08/06 07:07:36;;;;;;;8.93;5.75;;;;;;;35.02;30.29;99868.31;5071757;28;20049;-70
2022/08/06 07:10:04;;;;;;;11.85;6.32;;;;;;;35.24;29.61;99870.25;5054899;28;20496;-70
2022/08/06 07:12:32;;;;;;;11.27;7.18;;;;;;;35.69;28.89;99880.97;5037247;28;20044;-69
2022/08/06 07:14:59;;;;;;;8.70;5.85;;;;;;;35.83;28.53;99877.34;5053916;28;20080;-69
2022/08/06 07:17:28;;;;;;;16.35;6.78;;;;;;;36.13;27.99;99859.88;5054341;28;20044;-70
2022/08/06 07:19:57;;;;;;;11.25;6.50;;;;;;;37.04;26.67;99872.63;5070272;28;20482;-70
2022/08/06 07:22:23;;;;;;;10.13;6.40;;;;;;;37.84;25.78;99858.81;5054098;28;20048;-69
2022/08/06 07:24:52;;;;;;;7.32;5.63;;;;;;;39.22;23.92;99873.47;5070583;28;20051;-70
2022/08/06 07:27:18;;;;;;;7.82;5.20;;;;;;;40.79;22.04;99866.16;5053546;28;20046;-70
2022/08/06 07:29:44;;;;;;;12.68;5.65;;;;;;;42.23;20.34;99853.44;5053308;28;20098;-74
2022/08/06 07:32:11;;;;;;;9.95;5.25;;;;;;;43.96;18.30;99831.56;5020399;28;20040;-70
2022/08/06 07:34:37;;;;;;;10.63;5.68;;;;;;;46.00;16.48;99865.06;5053722;28;20040;-70
2022/08/06 07:37:02;;;;;;;5.55;4.28;;;;;;;47.94;14.09;99861.22;5070238;28;20068;-70
2022/08/06 07:39:32;;;;;;;7.25;4.13;;;;;;;49.83;12.32;99859.78;5053357;28;20075;-70
2022/08/06 07:42:00;;;;;;;8.25;4.20;;;;;;;50.70;11.52;99840.44;5036315;28;20490;-71
2022/08/06 07:44:27;;;;;;;11.23;4.47;;;;;;;51.72;10.69;99865.34;5069991;28;20512;-71
2022/08/06 07:46:57;;;;;;;14.70;3.92;;;;;;;50.21;11.32;99845.34;5069950;28;20110;-72
2022/08/06 07:49:25;;;;;;;11.68;4.20;;;;;;;49.35;12.00;99842.75;5069600;28;20121;-71
2022/08/06 07:51:52;;;;;;;11.85;4.22;;;;;;;49.85;12.23;99843.22;5070105;28;20068;-78
2022/08/06 07:54:21;;;;;;;7.60;3.53;;;;;;;51.58;10.93;99854.19;5069961;28;20047;-71
2022/08/06 07:56:48;;;;;;;8.93;3.60;;;;;;;52.14;10.07;99844.00;5036608;28;20050;-71
2022/08/06 07:59:14;;;;;;;9.75;3.72;;;;;;;53.14;9.57;99839.59;5019949;28;20104;-71
2022/08/06 08:01:40;;;;;;;12.88;3.75;;;;;;;53.93;8.71;99840.19;5069944;28;20132;-71
2022/08/06 08:06:52;;;;;;;17.90;3.90;;;;;;;51.57;10.30;99835.59;5039131;28;20044;-71
2022/08/06 08:09:21;;;;;;;6.32;3.80;;;;;;;52.11;10.16;99836.34;5069800;28;20054;-71
2022/08/06 08:11:48;;;;;;;10.20;3.53;;;;;;;53.36;9.24;99818.03;5053234;28;20520;-70
2022/08/06 08:14:17;;;;;;;7.60;3.40;;;;;;;54.94;8.00;99838.63;5019643;28;20040;-72
2022/08/06 08:16:43;;;;;;;7.75;3.70;;;;;;;55.19;7.89;99830.94;5069438;28;20474;-71
2022/08/06 08:19:32;;;;;;;8.75;4.05;;;;;;;55.96;7.99;99841.88;5036355;28;20489;-71
2022/08/06 08:22:19;;;;;;;4.82;3.33;;;;;;;57.19;6.76;99840.19;5069532;28;20066;-71
2022/08/06 08:24:46;;;;;;;5.78;3.13;;;;;;;57.88;6.19;99838.59;5036085;28;20464;-72
2022/08/06 08:27:12;;;;;;;19.00;3.23;;;;;;;58.34;5.84;99828.78;5052556;28;20036;-71
2022/08/06 08:29:39;;;;;;;6.95;2.80;;;;;;;55.36;7.23;99828.78;5019861;28;20121;-71
2022/08/06 08:32:06;;;;;;;3.67;3.10;;;;;;;53.59;8.41;99805.72;5069425;28;20089;-71
2022/08/06 08:34:32;;;;;;;8.13;3.67;;;;;;;54.75;7.99;99817.59;5019562;28;20075;-72
2022/08/06 08:36:59;;;;;;;6.30;3.00;;;;;;;56.12;7.14;99819.72;5019857;28;20048;-71
2022/08/06 08:39:25;;;;;;;7.43;2.83;;;;;;;57.55;5.95;99820.38;5052722;28;20484;-75
2022/08/06 08:41:54;;;;;;;5.60;2.67;;;;;;;58.01;5.95;99818.44;5019832;28;20477;-72
2022/08/06 08:44:25;;;;;;;5.65;2.80;;;;;;;55.83;6.60;99812.56;5069595;28;20036;-69
2022/08/06 08:46:51;;;;;;;8.10;2.53;;;;;;;55.02;6.72;99791.59;5069351;28;20127;-71
2022/08/06 08:49:28;;;;;;;11.27;2.75;;;;;;;54.43;7.57;99807.13;5052495;28;20114;-69
2022/08/06 08:51:55;;;;;;;7.55;2.53;;;;;;;55.01;7.26;99801.41;5070614;28;20090;-71
2022/08/06 08:54:22;;;;;;;7.45;2.95;;;;;;;55.87;6.90;99805.50;5069612;28;20048;-70
2022/08/06 08:56:49;;;;;;;5.00;3.00;;;;;;;57.14;6.34;99801.59;5069202;28;20043;-71
2022/08/06 08:59:15;;;;;;;9.95;2.60;;;;;;;58.45;5.27;99806.25;5035696;28;20206;-71
2022/08/06 09:01:41;;;;;;;12.88;2.65;;;;;;;56.73;5.94;99795.50;5035806;28;20089;-71
2022/08/06 09:04:07;;;;;;;5.75;2.53;;;;;;;56.20;6.31;99800.28;5052215;28;20060;-71
2022/08/06 09:06:36;;;;;;;10.50;3.22;;;;;;;56.57;6.35;99799.31;5056235;28;20044;-71
2022/08/06 09:09:04;;;;;;;7.20;2.40;;;;;;;58.16;5.55;99788.75;5039572;28;20044;-71
2022/08/06 09:11:34;;;;;;;5.47;2.40;;;;;;;59.44;4.96;99779.34;5056629;28;20053;-70
2022/08/06 09:14:03;;;;;;;6.55;2.30;;;;;;;59.57;4.35;99799.22;5039730;28;20420;-71
2022/08/06 09:16:29;;;;;;;5.18;2.30;;;;;;;60.02;4.60;99802.63;5056210;28;20387;-70
2022/08/06 09:18:55;;;;;;;10.05;2.55;;;;;;;59.17;4.81;99793.00;5056233;28;20057;-71
2022/08/06 09:21:21;;;;;;;4.28;2.30;;;;;;;58.36;5.42;99791.88;5023125;28;20044;-72
2022/08/06 09:23:47;;;;;;;9.55;2.40;;;;;;;59.40;4.60;99787.34;5039431;28;20036;-70
2022/08/06 09:26:12;;;;;;;8.02;2.20;;;;;;;59.45;4.31;99777.28;5039471;28;20052;-71
2022/08/06 09:28:41;;;;;;;9.43;2.58;;;;;;;59.06;4.61;99782.88;5022667;28;20170;-70
2022/08/06 09:31:11;;;;;;;8.85;2.10;;;;;;;59.40;4.62;99789.41;5039360;28;20064;-72
2022/08/06 09:33:42;;;;;;;5.05;2.10;;;;;;;57.89;5.20;99774.38;5055619;28;20424;-71
2022/08/06 09:36:11;;;;;;;5.47;2.40;;;;;;;58.90;4.56;99785.31;5072694;28;20123;-71
2022/08/06 09:38:50;;;;;;;8.82;2.00;;;;;;;57.74;4.36;99784.84;5039155;28;20048;-72
2022/08/06 09:41:18;;;;;;;5.47;2.10;;;;;;;57.94;5.14;99773.75;5055857;28;20051;-72
2022/08/06 09:43:48;;;;;;;4.07;2.08;;;;;;;59.27;4.34;99760.97;5072456;28;20063;-71
2022/08/06 09:46:14;;;;;;;4.82;2.40;;;;;;;59.65;3.84;99780.38;5072187;28;20417;-72
2022/08/06 09:49:00;;;;;;;11.07;2.15;;;;;;;58.02;4.63;99772.19;5055527;28;20513;-73
2022/08/06 09:51:26;;;;;;;5.97;2.05;;;;;;;56.60;5.28;99778.41;5072529;28;20382;-73
2022/08/06 09:53:53;;;;;;;10.38;2.90;;;;;;;55.06;6.47;99766.63;5073173;28;20129;-72
2022/08/06 09:56:19;;;;;;;6.60;2.60;;;;;;;52.01;7.87;99772.16;5055205;28;20471;-70
2022/08/06 09:58:45;;;;;;;10.82;2.63;;;;;;;51.44;8.53;99746.81;5022096;28;20044;-71
2022/08/06 10:01:19;;;;;;;7.35;2.50;;;;;;;51.82;8.60;99754.63;5055388;28;20538;-71
2022/08/06 10:03:45;;;;;;;6.75;2.95;;;;;;;51.77;8.53;99740.19;5055117;28;20086;-71
2022/08/06 10:06:13;;;;;;;12.38;3.25;;;;;;;51.38;8.84;99745.72;5039056;28;20052;-71
2022/08/06 10:08:40;;;;;;;7.82;3.30;;;;;;;52.48;7.92;99740.44;5038682;28;20516;-71
2022/08/06 10:11:06;;;;;;;7.55;3.30;;;;;;;54.19;7.56;99733.84;5055241;28;20127;-71
2022/08/06 10:13:33;;;;;;;8.48;2.78;;;;;;;56.72;5.93;99748.19;5055126;28;20125;-71
2022/08/06 10:16:01;;;;;;;6.60;2.40;;;;;;;56.00;5.65;99742.72;5054394;28;20047;-76
2022/08/06 10:18:41;;;;;;;4.35;2.40;;;;;;;55.42;5.97;99745.13;5054789;28;20036;-72
2022/08/06 10:21:12;;;;;;;4.78;2.25;;;;;;;55.49;6.20;99753.44;5071796;28;20044;-72
2022/08/06 10:23:41;;;;;;;8.02;2.60;;;;;;;54.91;5.92;99749.22;5071900;28;20055;-70
2022/08/06 10:26:09;;;;;;;3.40;2.60;;;;;;;54.81;6.42;99736.88;5072767;28;20131;-70
2022/08/06 10:28:35;;;;;;;12.93;2.78;;;;;;;55.07;6.15;99734.84;5071548;28;20087;-71
2022/08/06 10:31:06;;;;;;;10.02;2.65;;;;;;;54.22;6.65;99727.28;5071406;28;20500;-72
2022/08/06 10:33:48;;;;;;;11.25;3.08;;;;;;;54.18;6.79;99721.66;5071253;28;20040;-72
2022/08/06 10:36:15;;;;;;;7.65;3.10;;;;;;;54.64;6.62;99720.38;5054744;28;20642;-71
2022/08/06 10:38:44;;;;;;;3.97;2.35;;;;;;;54.85;6.32;99714.81;5054732;28;20445;-72
2022/08/06 10:41:11;;;;;;;10.55;2.60;;;;;;;55.92;5.75;99730.78;5071392;28;20040;-71
2022/08/06 10:43:38;;;;;;;8.73;2.90;;;;;;;56.28;5.77;99698.91;5072404;28;20044;-71
2022/08/06 10:46:06;;;;;;;6.43;2.55;;;;;;;57.83;5.14;99718.28;5054520;28;20044;-73
2022/08/06 10:48:33;;;;;;;8.63;2.47;;;;;;;57.56;5.02;99727.63;5070952;28;20037;-75
2022/08/06 10:51:00;;;;;;;10.47;2.90;;;;;;;53.87;6.56;99708.34;5071221;28;20071;-70
2022/08/06 10:53:26;;;;;;;5.50;2.75;;;;;;;51.14;8.78;99687.41;5071094;28;20620;-72
2022/08/06 10:55:52;;;;;;;8.15;2.80;;;;;;;51.43;8.71;99703.53;5072548;28;20048;-71
2022/08/06 10:58:18;;;;;;;9.55;3.08;;;;;;;50.75;9.02;99690.03;5072152;28;20105;-70
2022/08/06 11:00:44;;;;;;;6.63;2.95;;;;;;;51.06;9.12;99685.91;5071067;28;20052;-71
2022/08/06 11:03:55;;;;;;;4.18;2.92;;;;;;;53.13;7.90;99685.44;5038216;28;20371;-71
2022/08/06 11:06:36;;;;;;;7.88;2.80;;;;;;;55.01;6.56;99691.13;5054278;28;20079;-71
2022/08/06 11:09:28;;;;;;;12.45;3.03;;;;;;;55.86;6.01;99691.91;5070659;28;20045;-83
2022/08/06 11:12:31;;;;;;;7.32;2.75;;;;;;;54.58;6.40;99699.38;5070244;28;20055;-72
2022/08/06 11:14:58;;;;;;;9.98;3.20;;;;;;;53.61;6.97;99684.66;5053850;28;20186;-72
2022/08/06 11:17:24;;;;;;;11.68;3.15;;;;;;;54.27;6.84;99672.69;5053971;28;20048;-71
2022/08/06 11:19:50;;;;;;;10.75;3.25;;;;;;;54.91;6.51;99678.03;5037161;28;20051;-71
2022/08/06 11:22:36;;;;;;;10.60;2.88;;;;;;;54.51;6.37;99676.81;5020516;28;20040;-72
2022/08/06 11:25:09;;;;;;;6.15;3.25;;;;;;;53.61;7.02;99670.44;5070623;28;20173;-71
2022/08/06 11:27:53;;;;;;;8.30;2.83;;;;;;;52.67;7.92;99657.34;5053600;28;20045;-72
2022/08/06 11:30:20;;;;;;;8.57;3.15;;;;;;;50.50;9.04;99645.88;5053516;28;20402;-71
2022/08/06 11:32:51;;;;;;;9.75;3.60;;;;;;;48.01;10.35;99647.13;5070161;28;20041;-71
2022/08/06 11:35:35;;;;;;;10.88;3.55;;;;;;;47.06;11.50;99659.22;5037035;28;20048;-72
2022/08/06 11:38:03;;;;;;;9.57;3.38;;;;;;;45.20;12.98;99660.22;5053755;28;20049;-72
2022/08/06 11:40:55;;;;;;;11.13;3.92;;;;;;;43.62;14.72;99644.25;5053699;28;20577;-71
2022/08/06 11:43:47;;;;;;;8.65;3.95;;;;;;;43.13;14.80;99635.84;5037020;28;20121;-71